Hadley, Kentucky
Current Conditions -  °F | °C
As of 11:15 AM on Monday 24 Nov 2014 (Local Time) from KBWG Reporting Station
Light Rain Light Rain  
Wind Chill: 52°   Ceiling: 3200
Heat Index: 52°   Visibility: 10mi
Dew Point: 39°   Wind: 20mph
Humidity: 61%   Direction: 250°WSW
Pressure: 29.75"   Gusts: 26mph
Location:  37.06°N, 86.61°W
Report Text: KBWG 241715Z AUTO 25017G23KT 10SM -RA OVC032 11/04 A2975 RMK AO2 RAB11 P0000 T01110039
Loading
Personal Weather Stations






























Interactive Weather Map New forecast layout! Learn more

10-Day Weather Forecast

Advertisements
Track Severe Weather on mobile